sensor_id;sensor_type;location;lat;lon;timestamp;pressure;altitude;pressure_sealevel;temperature;humidity
51759;BME280;66684;47.568;18.734;2023-04-06T00:02:09;99679.81;;;-1.69;77.24
51759;BME280;66684;47.568;18.734;2023-04-06T00:04:35;99674.88;;;-1.48;77.40
51759;BME280;66684;47.568;18.734;2023-04-06T00:07:01;99673.19;;;-1.29;76.16
51759;BME280;66684;47.568;18.734;2023-04-06T00:09:27;99670.91;;;-1.26;75.92
51759;BME280;66684;47.568;18.734;2023-04-06T00:11:53;99673.41;;;-1.36;76.33
51759;BME280;66684;47.568;18.734;2023-04-06T00:14:19;99674.41;;;-1.44;77.32
51759;BME280;66684;47.568;18.734;2023-04-06T00:16:45;99675.41;;;-1.42;76.39
51759;BME280;66684;47.568;18.734;2023-04-06T00:19:11;99673.09;;;-1.49;76.97
51759;BME280;66684;47.568;18.734;2023-04-06T00:21:37;99672.59;;;-1.45;77.69
51759;BME280;66684;47.568;18.734;2023-04-06T00:24:03;99673.03;;;-1.59;77.45
51759;BME280;66684;47.568;18.734;2023-04-06T00:26:29;99669.06;;;-1.66;78.78
51759;BME280;66684;47.568;18.734;2023-04-06T00:28:55;99667.63;;;-1.73;78.90
51759;BME280;66684;47.568;18.734;2023-04-06T00:31:21;99674.22;;;-1.75;79.34
51759;BME280;66684;47.568;18.734;2023-04-06T00:33:48;99670.91;;;-1.74;78.74
51759;BME280;66684;47.568;18.734;2023-04-06T00:36:14;99671.38;;;-1.59;78.08
51759;BME280;66684;47.568;18.734;2023-04-06T00:38:40;99666.94;;;-1.61;77.85
51759;BME280;66684;47.568;18.734;2023-04-06T00:41:06;99665.78;;;-1.65;78.61
51759;BME280;66684;47.568;18.734;2023-04-06T00:43:32;99668.97;;;-1.57;77.77
51759;BME280;66684;47.568;18.734;2023-04-06T00:45:58;99655.84;;;-1.72;77.26
51759;BME280;66684;47.568;18.734;2023-04-06T00:48:24;99660.09;;;-1.62;76.63
51759;BME280;66684;47.568;18.734;2023-04-06T00:50:49;99656.28;;;-1.68;76.93
51759;BME280;66684;47.568;18.734;2023-04-06T00:53:15;99654.62;;;-1.86;77.28
51759;BME280;66684;47.568;18.734;2023-04-06T00:55:41;99652.56;;;-1.90;77.57
51759;BME280;66684;47.568;18.734;2023-04-06T00:58:07;99657.28;;;-1.84;78.23
51759;BME280;66684;47.568;18.734;2023-04-06T01:00:33;99647.78;;;-1.87;78.86
51759;BME280;66684;47.568;18.734;2023-04-06T01:02:59;99647.28;;;-1.83;78.93
51759;BME280;66684;47.568;18.734;2023-04-06T01:05:25;99653.13;;;-1.84;78.85
51759;BME280;66684;47.568;18.734;2023-04-06T01:07:51;99646.34;;;-1.94;79.50
51759;BME280;66684;47.568;18.734;2023-04-06T01:10:27;99644.06;;;-1.91;79.58
51759;BME280;66684;47.568;18.734;2023-04-06T01:12:53;99649.44;;;-2.06;80.03
51759;BME280;66684;47.568;18.734;2023-04-06T01:15:20;99651.75;;;-1.99;79.77
51759;BME280;66684;47.568;18.734;2023-04-06T01:17:46;99651.00;;;-1.79;79.82
51759;BME280;66684;47.568;18.734;2023-04-06T01:20:12;99651.06;;;-1.69;79.65
51759;BME280;66684;47.568;18.734;2023-04-06T01:22:38;99644.84;;;-1.73;79.84
51759;BME280;66684;47.568;18.734;2023-04-06T01:25:05;99649.13;;;-1.72;79.26
51759;BME280;66684;47.568;18.734;2023-04-06T01:27:31;99658.50;;;-1.71;79.18
51759;BME280;66684;47.568;18.734;2023-04-06T01:29:57;99653.41;;;-1.81;78.65
51759;BME280;66684;47.568;18.734;2023-04-06T01:32:23;99642.97;;;-1.84;77.95
51759;BME280;66684;47.568;18.734;2023-04-06T01:34:49;99643.06;;;-2.11;78.94
51759;BME280;66684;47.568;18.734;2023-04-06T01:37:15;99645.69;;;-2.29;80.35
51759;BME280;66684;47.568;18.734;2023-04-06T01:39:42;99638.75;;;-2.12;79.88
51759;BME280;66684;47.568;18.734;2023-04-06T01:42:08;99648.72;;;-1.95;79.98
51759;BME280;66684;47.568;18.734;2023-04-06T01:44:34;99640.72;;;-2.46;81.99
51759;BME280;66684;47.568;18.734;2023-04-06T01:47:00;99636.41;;;-2.38;82.53
51759;BME280;66684;47.568;18.734;2023-04-06T01:49:26;99637.16;;;-2.21;82.32
51759;BME280;66684;47.568;18.734;2023-04-06T01:51:52;99640.56;;;-2.20;81.45
51759;BME280;66684;47.568;18.734;2023-04-06T01:54:19;99631.00;;;-2.14;80.73
51759;BME280;66684;47.568;18.734;2023-04-06T01:56:46;99636.41;;;-2.20;81.54
51759;BME280;66684;47.568;18.734;2023-04-06T01:59:12;99634.91;;;-2.18;81.12
51759;BME280;66684;47.568;18.734;2023-04-06T02:01:38;99638.38;;;-2.53;82.73
51759;BME280;66684;47.568;18.734;2023-04-06T02:04:04;99633.56;;;-2.41;82.94
51759;BME280;66684;47.568;18.734;2023-04-06T02:06:30;99631.88;;;-2.32;82.43
51759;BME280;66684;47.568;18.734;2023-04-06T02:08:56;99625.19;;;-2.32;82.17
51759;BME280;66684;47.568;18.734;2023-04-06T02:11:22;99621.88;;;-2.50;82.58
51759;BME280;66684;47.568;18.734;2023-04-06T02:13:48;99629.78;;;-2.55;82.58
51759;BME280;66684;47.568;18.734;2023-04-06T02:16:14;99633.63;;;-2.50;82.74
51759;BME280;66684;47.568;18.734;2023-04-06T02:18:41;99634.53;;;-2.58;82.48
51759;BME280;66684;47.568;18.734;2023-04-06T02:21:07;99635.47;;;-2.66;83.25
51759;BME280;66684;47.568;18.734;2023-04-06T02:23:33;99636.44;;;-2.83;84.47
51759;BME280;66684;47.568;18.734;2023-04-06T02:25:59;99627.63;;;-3.14;86.99
51759;BME280;66684;47.568;18.734;2023-04-06T02:28:24;99627.50;;;-3.07;86.25
51759;BME280;66684;47.568;18.734;2023-04-06T02:30:50;99624.47;;;-3.03;85.90
51759;BME280;66684;47.568;18.734;2023-04-06T02:33:16;99627.94;;;-3.11;86.78
51759;BME280;66684;47.568;18.734;2023-04-06T02:35:44;99622.84;;;-2.94;84.51
51759;BME280;66684;47.568;18.734;2023-04-06T02:38:10;99626.69;;;-2.89;84.37
51759;BME280;66684;47.568;18.734;2023-04-06T02:40:36;99621.94;;;-2.94;84.08
51759;BME280;66684;47.568;18.734;2023-04-06T02:43:01;99621.31;;;-2.92;84.50
51759;BME280;66684;47.568;18.734;2023-04-06T02:45:27;99622.47;;;-2.80;84.30
51759;BME280;66684;47.568;18.734;2023-04-06T02:47:53;99611.22;;;-2.64;82.69
51759;BME280;66684;47.568;18.734;2023-04-06T02:50:19;99616.47;;;-2.72;83.58
51759;BME280;66684;47.568;18.734;2023-04-06T02:52:45;99610.19;;;-2.66;84.19
51759;BME280;66684;47.568;18.734;2023-04-06T02:55:11;99609.25;;;-2.58;83.51
51759;BME280;66684;47.568;18.734;2023-04-06T02:57:37;99613.03;;;-2.63;82.21
51759;BME280;66684;47.568;18.734;2023-04-06T03:00:03;99599.44;;;-2.55;81.28
51759;BME280;66684;47.568;18.734;2023-04-06T03:02:29;99607.13;;;-2.45;80.99
51759;BME280;66684;47.568;18.734;2023-04-06T03:04:55;99607.63;;;-2.39;82.19
51759;BME280;66684;47.568;18.734;2023-04-06T03:07:21;99601.22;;;-2.35;82.27
51759;BME280;66684;47.568;18.734;2023-04-06T03:09:47;99608.72;;;-2.18;81.62
51759;BME280;66684;47.568;18.734;2023-04-06T03:12:13;99595.72;;;-2.12;81.26
51759;BME280;66684;47.568;18.734;2023-04-06T03:14:39;99600.56;;;-2.05;80.77
51759;BME280;66684;47.568;18.734;2023-04-06T03:17:05;99606.19;;;-1.99;79.90
51759;BME280;66684;47.568;18.734;2023-04-06T03:19:31;99606.19;;;-1.99;79.78
51759;BME280;66684;47.568;18.734;2023-04-06T03:21:57;99604.41;;;-2.00;79.99
51759;BME280;66684;47.568;18.734;2023-04-06T03:24:23;99608.72;;;-2.18;81.34
51759;BME280;66684;47.568;18.734;2023-04-06T03:26:49;99598.72;;;-2.17;80.74
51759;BME280;66684;47.568;18.734;2023-04-06T03:29:15;99607.53;;;-2.22;81.48
51759;BME280;66684;47.568;18.734;2023-04-06T03:31:40;99603.31;;;-2.12;81.35
51759;BME280;66684;47.568;18.734;2023-04-06T03:34:06;99596.25;;;-2.25;80.90
51759;BME280;66684;47.568;18.734;2023-04-06T03:36:34;99605.00;;;-2.22;81.40
51759;BME280;66684;47.568;18.734;2023-04-06T03:39:00;99607.94;;;-2.17;81.99
51759;BME280;66684;47.568;18.734;2023-04-06T03:41:25;99607.88;;;-2.08;81.81
51759;BME280;66684;47.568;18.734;2023-04-06T03:43:52;99612.34;;;-2.52;82.52
51759;BME280;66684;47.568;18.734;2023-04-06T03:46:18;99614.69;;;-2.73;83.80
51759;BME280;66684;47.568;18.734;2023-04-06T03:48:45;99620.31;;;-2.66;83.42
51759;BME280;66684;47.568;18.734;2023-04-06T03:51:11;99622.09;;;-2.65;83.33
51759;BME280;66684;47.568;18.734;2023-04-06T03:53:37;99612.28;;;-2.71;82.26
51759;BME280;66684;47.568;18.734;2023-04-06T03:56:03;99617.72;;;-2.85;83.23
51759;BME280;66684;47.568;18.734;2023-04-06T03:58:29;99614.50;;;-2.93;83.78
51759;BME280;66684;47.568;18.734;2023-04-06T04:00:55;99617.03;;;-2.65;83.56
51759;BME280;66684;47.568;18.734;2023-04-06T04:03:21;99616.00;;;-2.67;84.47
51759;BME280;66684;47.568;18.734;2023-04-06T04:05:49;99609.97;;;-2.51;83.64
51759;BME280;66684;47.568;18.734;2023-04-06T04:08:16;99608.59;;;-2.47;83.33
51759;BME280;66684;47.568;18.734;2023-04-06T04:10:41;99606.63;;;-2.41;83.31
51759;BME280;66684;47.568;18.734;2023-04-06T04:13:07;99610.56;;;-2.26;82.31
51759;BME280;66684;47.568;18.734;2023-04-06T04:15:33;99613.47;;;-2.21;81.82
51759;BME280;66684;47.568;18.734;2023-04-06T04:17:59;99607.94;;;-2.17;82.06
51759;BME280;66684;47.568;18.734;2023-04-06T04:20:25;99608.28;;;-2.04;81.31
51759;BME280;66684;47.568;18.734;2023-04-06T04:22:54;99607.31;;;-2.14;81.16
51759;BME280;66684;47.568;18.734;2023-04-06T04:25:20;99605.50;;;-2.26;81.96
51759;BME280;66684;47.568;18.734;2023-04-06T04:27:45;99604.25;;;-2.21;81.47
51759;BME280;66684;47.568;18.734;2023-04-06T04:30:11;99612.59;;;-2.22;81.35
51759;BME280;66684;47.568;18.734;2023-04-06T04:32:37;99617.03;;;-2.38;81.37
51759;BME280;66684;47.568;18.734;2023-04-06T04:35:03;99615.62;;;-2.81;84.24
51759;BME280;66684;47.568;18.734;2023-04-06T04:37:29;99620.87;;;-2.60;84.24
51759;BME280;66684;47.568;18.734;2023-04-06T04:39:55;99606.63;;;-2.41;82.80
51759;BME280;66684;47.568;18.734;2023-04-06T04:42:21;99609.72;;;-2.35;82.71
51759;BME280;66684;47.568;18.734;2023-04-06T04:44:47;99611.34;;;-2.35;82.65
51759;BME280;66684;47.568;18.734;2023-04-06T04:47:13;99609.78;;;-2.43;82.72
51759;BME280;66684;47.568;18.734;2023-04-06T04:49:39;99616.06;;;-2.49;83.25
51759;BME280;66684;47.568;18.734;2023-04-06T04:52:05;99610.47;;;-2.36;83.30
51759;BME280;66684;47.568;18.734;2023-04-06T04:54:31;99607.56;;;-2.49;84.59
51759;BME280;66684;47.568;18.734;2023-04-06T04:56:56;99616.06;;;-2.49;85.38
51759;BME280;66684;47.568;18.734;2023-04-06T04:59:22;99605.88;;;-2.40;84.84
51759;BME280;66684;47.568;18.734;2023-04-06T05:01:48;99600.53;;;-2.43;85.63
51759;BME280;66684;47.568;18.734;2023-04-06T05:04:14;99598.81;;;-2.53;86.63
51759;BME280;66684;47.568;18.734;2023-04-06T05:06:40;99586.25;;;-2.42;86.40
51759;BME280;66684;47.568;18.734;2023-04-06T05:09:06;99590.56;;;-2.23;85.50
51759;BME280;66684;47.568;18.734;2023-04-06T05:11:32;99583.28;;;-2.47;85.71
51759;BME280;66684;47.568;18.734;2023-04-06T05:13:59;99584.34;;;-2.45;85.73
51759;BME280;66684;47.568;18.734;2023-04-06T05:16:24;99591.66;;;-2.48;87.32
51759;BME280;66684;47.568;18.734;2023-04-06T05:18:51;99593.62;;;-2.54;86.57
51759;BME280;66684;47.568;18.734;2023-04-06T05:21:16;99587.28;;;-2.22;85.46
51759;BME280;66684;47.568;18.734;2023-04-06T05:23:42;99587.03;;;-2.06;83.08
51759;BME280;66684;47.568;18.734;2023-04-06T05:26:08;99576.94;;;-1.96;82.40
51759;BME280;66684;47.568;18.734;2023-04-06T05:28:34;99580.34;;;-1.76;80.17
51759;BME280;66684;47.568;18.734;2023-04-06T05:31:01;99575.41;;;-1.56;78.75
51759;BME280;66684;47.568;18.734;2023-04-06T05:33:27;99567.81;;;-1.46;76.45
51759;BME280;66684;47.568;18.734;2023-04-06T05:35:53;99568.28;;;-1.21;75.31
51759;BME280;66684;47.568;18.734;2023-04-06T05:38:19;99565.78;;;-1.11;74.49
51759;BME280;66684;47.568;18.734;2023-04-06T05:40:45;99567.00;;;-1.26;74.71
51759;BME280;66684;47.568;18.734;2023-04-06T05:43:11;99563.25;;;-1.11;74.38
51759;BME280;66684;47.568;18.734;2023-04-06T05:45:36;99563.78;;;-1.04;73.05
51759;BME280;66684;47.568;18.734;2023-04-06T05:48:02;99551.78;;;-1.26;74.33
51759;BME280;66684;47.568;18.734;2023-04-06T05:50:28;99553.88;;;-1.12;74.49
51759;BME280;66684;47.568;18.734;2023-04-06T05:52:55;99555.16;;;-1.06;73.25
51759;BME280;66684;47.568;18.734;2023-04-06T05:55:20;99548.28;;;-1.08;72.99
51759;BME280;66684;47.568;18.734;2023-04-06T05:57:46;99549.97;;;-0.98;73.45
51759;BME280;66684;47.568;18.734;2023-04-06T06:00:13;99551.37;;;-0.91;73.61
51759;BME280;66684;47.568;18.734;2023-04-06T06:02:39;99545.03;;;-0.86;73.02
51759;BME280;66684;47.568;18.734;2023-04-06T06:05:05;99543.53;;;-0.74;72.03
51759;BME280;66684;47.568;18.734;2023-04-06T06:07:31;99537.31;;;-0.67;72.20
51759;BME280;66684;47.568;18.734;2023-04-06T06:09:57;99534.41;;;-0.62;70.43
51759;BME280;66684;47.568;18.734;2023-04-06T06:12:24;99538.97;;;-0.68;70.45
51759;BME280;66684;47.568;18.734;2023-04-06T06:14:50;99534.41;;;-0.62;69.77
51759;BME280;66684;47.568;18.734;2023-04-06T06:17:15;99542.75;;;-0.52;68.86
51759;BME280;66684;47.568;18.734;2023-04-06T06:19:41;99527.91;;;-0.48;69.83
51759;BME280;66684;47.568;18.734;2023-04-06T06:22:07;99527.78;;;-0.49;70.42
51759;BME280;66684;47.568;18.734;2023-04-06T06:24:33;99531.31;;;-0.27;71.44
51759;BME280;66684;47.568;18.734;2023-04-06T06:26:59;99527.75;;;-0.29;69.21
51759;BME280;66684;47.568;18.734;2023-04-06T06:29:25;99528.87;;;-0.25;70.78
51759;BME280;66684;47.568;18.734;2023-04-06T06:31:51;99527.72;;;-0.09;68.96
51759;BME280;66684;47.568;18.734;2023-04-06T06:34:17;99523.41;;;0.01;68.03
51759;BME280;66684;47.568;18.734;2023-04-06T06:36:42;99519.19;;;0.01;68.86
51759;BME280;66684;47.568;18.734;2023-04-06T06:39:08;99508.09;;;0.21;66.88
51759;BME280;66684;47.568;18.734;2023-04-06T06:41:34;99512.00;;;0.17;67.60
51759;BME280;66684;47.568;18.734;2023-04-06T06:44:01;99517.44;;;0.32;68.71
51759;BME280;66684;47.568;18.734;2023-04-06T06:46:27;99509.75;;;0.42;66.36
51759;BME280;66684;47.568;18.734;2023-04-06T06:48:53;99510.34;;;0.28;67.69
51759;BME280;66684;47.568;18.734;2023-04-06T06:51:19;99509.06;;;0.33;66.94
51759;BME280;66684;47.568;18.734;2023-04-06T06:53:45;99506.69;;;0.46;67.98
51759;BME280;66684;47.568;18.734;2023-04-06T06:56:11;99501.50;;;0.67;66.95
51759;BME280;66684;47.568;18.734;2023-04-06T06:58:38;99500.81;;;0.58;67.75
51759;BME280;66684;47.568;18.734;2023-04-06T07:01:04;99504.16;;;0.90;67.42
51759;BME280;66684;47.568;18.734;2023-04-06T07:03:30;99496.63;;;1.14;67.86
51759;BME280;66684;47.568;18.734;2023-04-06T07:05:56;99499.75;;;1.21;64.82
51759;BME280;66684;47.568;18.734;2023-04-06T07:08:23;99492.88;;;1.32;64.48
51759;BME280;66684;47.568;18.734;2023-04-06T07:10:50;99495.97;;;1.16;64.86
51759;BME280;66684;47.568;18.734;2023-04-06T07:13:18;99482.72;;;1.32;64.15
51759;BME280;66684;47.568;18.734;2023-04-06T07:15:48;99478.78;;;1.59;63.75
51759;BME280;66684;47.568;18.734;2023-04-06T07:18:15;99468.50;;;1.81;62.63
51759;BME280;66684;47.568;18.734;2023-04-06T07:20:41;99478.34;;;1.88;62.51
51759;BME280;66684;47.568;18.734;2023-04-06T07:23:07;99477.91;;;1.94;61.10
51759;BME280;66684;47.568;18.734;2023-04-06T07:25:33;99477.47;;;1.99;60.48
51759;BME280;66684;47.568;18.734;2023-04-06T07:27:59;99478.47;;;2.01;59.80
51759;BME280;66684;47.568;18.734;2023-04-06T07:30:25;99473.72;;;1.82;59.34
51759;BME280;66684;47.568;18.734;2023-04-06T07:32:53;99488.78;;;1.91;60.66
51759;BME280;66684;47.568;18.734;2023-04-06T07:35:22;99477.47;;;1.99;59.13
51759;BME280;66684;47.568;18.734;2023-04-06T07:37:47;99481.03;;;2.01;59.09
51759;BME280;66684;47.568;18.734;2023-04-06T07:40:13;99479.03;;;2.09;58.69
51759;BME280;66684;47.568;18.734;2023-04-06T07:42:39;99463.72;;;2.09;57.28
51759;BME280;66684;47.568;18.734;2023-04-06T07:45:06;99471.91;;;2.28;58.50
51759;BME280;66684;47.568;18.734;2023-04-06T07:47:33;99464.75;;;2.48;57.98
51759;BME280;66684;47.568;18.734;2023-04-06T07:49:59;99469.84;;;2.59;57.53
51759;BME280;66684;47.568;18.734;2023-04-06T07:52:25;99461.13;;;2.69;57.24
51759;BME280;66684;47.568;18.734;2023-04-06T07:54:51;99464.69;;;2.71;56.16
51759;BME280;66684;47.568;18.734;2023-04-06T07:57:17;99457.63;;;2.92;56.62
51759;BME280;66684;47.568;18.734;2023-04-06T07:59:43;99461.03;;;2.92;55.33
51759;BME280;66684;47.568;18.734;2023-04-06T08:02:09;99452.69;;;2.95;55.01
51759;BME280;66684;47.568;18.734;2023-04-06T08:04:35;99457.94;;;2.96;54.39
51759;BME280;66684;47.568;18.734;2023-04-06T08:07:01;99463.50;;;3.16;54.61
51759;BME280;66684;47.568;18.734;2023-04-06T08:09:27;99454.50;;;3.34;55.08
51759;BME280;66684;47.568;18.734;2023-04-06T08:11:53;99461.09;;;3.44;53.46
51759;BME280;66684;47.568;18.734;2023-04-06T08:14:19;99458.41;;;3.29;53.34
51759;BME280;66684;47.568;18.734;2023-04-06T08:16:45;99461.47;;;3.37;53.20
51759;BME280;66684;47.568;18.734;2023-04-06T08:19:11;99454.06;;;3.53;53.39
51759;BME280;66684;47.568;18.734;2023-04-06T08:21:37;99448.25;;;3.56;53.86
51759;BME280;66684;47.568;18.734;2023-04-06T08:24:05;99451.09;;;3.60;52.56
51759;BME280;66684;47.568;18.734;2023-04-06T08:26:31;99453.56;;;3.72;52.68
51759;BME280;66684;47.568;18.734;2023-04-06T08:28:57;99447.75;;;3.61;52.17
51759;BME280;66684;47.568;18.734;2023-04-06T08:31:23;99453.84;;;3.76;51.50
51759;BME280;66684;47.568;18.734;2023-04-06T08:33:49;99439.31;;;3.89;51.25
51759;BME280;66684;47.568;18.734;2023-04-06T08:36:15;99448.75;;;3.76;51.19
51759;BME280;66684;47.568;18.734;2023-04-06T08:38:42;99441.09;;;3.90;51.36
51759;BME280;66684;47.568;18.734;2023-04-06T08:41:12;99428.81;;;3.84;51.52
51759;BME280;66684;47.568;18.734;2023-04-06T08:43:43;99427.31;;;4.01;51.49
51759;BME280;66684;47.568;18.734;2023-04-06T08:46:10;99428.09;;;4.00;51.15
51759;BME280;66684;47.568;18.734;2023-04-06T08:48:38;99417.44;;;4.20;50.99
51759;BME280;66684;47.568;18.734;2023-04-06T08:51:05;99410.00;;;4.10;49.58
51759;BME280;66684;47.568;18.734;2023-04-06T08:53:32;99418.66;;;4.12;49.72
51759;BME280;66684;47.568;18.734;2023-04-06T08:55:58;99421.56;;;4.31;50.14
51759;BME280;66684;47.568;18.734;2023-04-06T08:58:25;99413.75;;;4.43;48.64
51759;BME280;66684;47.568;18.734;2023-04-06T09:00:53;99414.44;;;4.54;49.62
51759;BME280;66684;47.568;18.734;2023-04-06T09:03:21;99434.91;;;4.54;48.40
51759;BME280;66684;47.568;18.734;2023-04-06T09:05:47;99414.31;;;4.24;48.37
51759;BME280;66684;47.568;18.734;2023-04-06T09:08:13;99416.81;;;4.38;47.73
51759;BME280;66684;47.568;18.734;2023-04-06T09:10:42;99411.53;;;4.35;48.21
51759;BME280;66684;47.568;18.734;2023-04-06T09:13:08;99405.91;;;4.68;48.61
51759;BME280;66684;47.568;18.734;2023-04-06T09:15:34;99404.81;;;4.65;48.68
51759;BME280;66684;47.568;18.734;2023-04-06T09:18:01;99404.13;;;5.10;48.55
51759;BME280;66684;47.568;18.734;2023-04-06T09:20:27;99403.56;;;5.01;47.66
51759;BME280;66684;47.568;18.734;2023-04-06T09:22:55;99391.94;;;4.91;46.52
51759;BME280;66684;47.568;18.734;2023-04-06T09:25:23;99390.19;;;5.05;46.74
51759;BME280;66684;47.568;18.734;2023-04-06T09:28:02;99401.66;;;4.97;46.05
51759;BME280;66684;47.568;18.734;2023-04-06T09:30:28;99392.47;;;5.30;47.01
51759;BME280;66684;47.568;18.734;2023-04-06T09:32:56;99396.72;;;5.29;45.89
51759;BME280;66684;47.568;18.734;2023-04-06T09:35:23;99394.75;;;4.96;45.97
51759;BME280;66684;47.568;18.734;2023-04-06T09:37:50;99391.06;;;5.05;46.04
51759;BME280;66684;47.568;18.734;2023-04-06T09:40:17;99385.56;;;4.99;45.32
51759;BME280;66684;47.568;18.734;2023-04-06T09:42:48;99375.84;;;4.94;45.93
51759;BME280;66684;47.568;18.734;2023-04-06T09:45:17;99373.94;;;5.04;46.83
51759;BME280;66684;47.568;18.734;2023-04-06T09:47:45;99390.84;;;5.02;46.40
51759;BME280;66684;47.568;18.734;2023-04-06T09:50:14;99380.09;;;5.08;46.18
51759;BME280;66684;47.568;18.734;2023-04-06T09:52:49;99372.69;;;4.98;46.46
51759;BME280;66684;47.568;18.734;2023-04-06T09:55:39;99377.97;;;5.01;46.35
51759;BME280;66684;47.568;18.734;2023-04-06T09:58:08;99381.34;;;5.00;46.07
51759;BME280;66684;47.568;18.734;2023-04-06T10:00:43;99370.22;;;5.14;46.19
51759;BME280;66684;47.568;18.734;2023-04-06T10:03:21;99375.34;;;5.44;46.61
51759;BME280;66684;47.568;18.734;2023-04-06T10:05:57;99375.41;;;5.45;44.91
51759;BME280;66684;47.568;18.734;2023-04-06T10:08:28;99375.50;;;5.32;46.65
51759;BME280;66684;47.568;18.734;2023-04-06T10:10:55;99383.25;;;5.63;44.61
51759;BME280;66684;47.568;18.734;2023-04-06T10:13:23;99371.78;;;5.56;45.21
51759;BME280;66684;47.568;18.734;2023-04-06T10:15:51;99373.09;;;5.64;44.27
51759;BME280;66684;47.568;18.734;2023-04-06T10:18:17;99380.78;;;5.79;45.96
51759;BME280;66684;47.568;18.734;2023-04-06T10:21:00;99371.75;;;5.86;45.46
51759;BME280;66684;47.568;18.734;2023-04-06T10:23:41;99363.44;;;5.75;44.74
51759;BME280;66684;47.568;18.734;2023-04-06T10:26:17;99362.56;;;5.75;44.65
51759;BME280;66684;47.568;18.734;2023-04-06T10:28:44;99354.16;;;5.77;45.55
51759;BME280;66684;47.568;18.734;2023-04-06T10:31:11;99355.59;;;6.03;45.53
51759;BME280;66684;47.568;18.734;2023-04-06T10:33:37;99353.16;;;6.05;44.61
51759;BME280;66684;47.568;18.734;2023-04-06T10:36:14;99361.84;;;5.92;44.97
51759;BME280;66684;47.568;18.734;2023-04-06T10:38:41;99352.19;;;6.19;44.12
51759;BME280;66684;47.568;18.734;2023-04-06T10:41:11;99350.34;;;5.85;43.86
51759;BME280;66684;47.568;18.734;2023-04-06T10:43:40;99368.00;;;5.95;44.99
51759;BME280;66684;47.568;18.734;2023-04-06T10:46:07;99349.62;;;6.19;44.28
51759;BME280;66684;47.568;18.734;2023-04-06T10:48:41;99338.50;;;6.18;44.90
51759;BME280;66684;47.568;18.734;2023-04-06T10:51:11;99352.53;;;6.25;45.36
51759;BME280;66684;47.568;18.734;2023-04-06T10:53:38;99339.94;;;6.46;44.13
51759;BME280;66684;47.568;18.734;2023-04-06T10:56:09;99337.03;;;6.72;45.10
51759;BME280;66684;47.568;18.734;2023-04-06T10:58:36;99325.72;;;6.69;45.64
51759;BME280;66684;47.568;18.734;2023-04-06T11:01:02;99335.19;;;6.86;43.80
51759;BME280;66684;47.568;18.734;2023-04-06T11:03:29;99323.16;;;6.69;43.99
51759;BME280;66684;47.568;18.734;2023-04-06T11:05:55;99333.09;;;6.79;43.75
51759;BME280;66684;47.568;18.734;2023-04-06T11:08:30;99331.44;;;6.47;45.29
51759;BME280;66684;47.568;18.734;2023-04-06T11:13:39;99313.59;;;6.83;44.37
51759;BME280;66684;47.568;18.734;2023-04-06T11:16:04;99310.75;;;6.94;44.23
51759;BME280;66684;47.568;18.734;2023-04-06T11:18:31;99329.72;;;6.80;43.13
51759;BME280;66684;47.568;18.734;2023-04-06T11:20:57;99325.25;;;6.60;42.94
51759;BME280;66684;47.568;18.734;2023-04-06T11:23:24;99331.53;;;6.48;43.48
51759;BME280;66684;47.568;18.734;2023-04-06T11:25:53;99321.63;;;6.72;43.14
51759;BME280;66684;47.568;18.734;2023-04-06T11:28:20;99308.41;;;6.65;42.13
51759;BME280;66684;47.568;18.734;2023-04-06T11:30:46;99315.28;;;6.66;42.23
51759;BME280;66684;47.568;18.734;2023-04-06T11:33:20;99313.97;;;6.90;43.13
51759;BME280;66684;47.568;18.734;2023-04-06T11:35:46;99316.53;;;6.90;41.72
51759;BME280;66684;47.568;18.734;2023-04-06T11:38:12;99306.25;;;6.90;41.78
51759;BME280;66684;47.568;18.734;2023-04-06T11:40:38;99303.19;;;6.97;41.57
51759;BME280;66684;47.568;18.734;2023-04-06T11:43:04;99297.47;;;6.85;40.82
51759;BME280;66684;47.568;18.734;2023-04-06T11:45:42;99292.34;;;7.03;42.56
51759;BME280;66684;47.568;18.734;2023-04-06T11:48:18;99299.66;;;6.95;41.82
51759;BME280;66684;47.568;18.734;2023-04-06T11:50:46;99298.16;;;6.99;42.50
51759;BME280;66684;47.568;18.734;2023-04-06T11:53:14;99292.19;;;7.00;42.21
51759;BME280;66684;47.568;18.734;2023-04-06T11:55:40;99288.06;;;7.03;41.96
51759;BME280;66684;47.568;18.734;2023-04-06T11:58:06;99312.81;;;7.36;42.93
51759;BME280;66684;47.568;18.734;2023-04-06T12:00:32;99334.00;;;6.97;40.91
51759;BME280;66684;47.568;18.734;2023-04-06T12:03:00;99296.28;;;6.96;42.19
51759;BME280;66684;47.568;18.734;2023-04-06T12:05:26;99279.91;;;7.11;40.97
51759;BME280;66684;47.568;18.734;2023-04-06T12:07:52;99293.03;;;7.17;41.58
51759;BME280;66684;47.568;18.734;2023-04-06T12:10:18;99278.09;;;7.10;41.20
51759;BME280;66684;47.568;18.734;2023-04-06T12:12:44;99284.13;;;6.92;41.56
51759;BME280;66684;47.568;18.734;2023-04-06T12:15:10;99298.47;;;6.89;40.28
51759;BME280;66684;47.568;18.734;2023-04-06T12:17:36;99278.38;;;6.80;41.34
51759;BME280;66684;47.568;18.734;2023-04-06T12:20:02;99274.28;;;7.01;41.75
51759;BME280;66684;47.568;18.734;2023-04-06T12:22:28;99285.72;;;6.90;40.92
51759;BME280;66684;47.568;18.734;2023-04-06T12:24:54;99286.47;;;6.71;40.83
51759;BME280;66684;47.568;18.734;2023-04-06T12:27:20;99281.44;;;6.73;40.78
51759;BME280;66684;47.568;18.734;2023-04-06T12:29:47;99272.44;;;6.65;40.96
51759;BME280;66684;47.568;18.734;2023-04-06T12:32:12;99273.81;;;6.74;40.44
51759;BME280;66684;47.568;18.734;2023-04-06T12:34:38;99275.44;;;6.90;41.07
51759;BME280;66684;47.568;18.734;2023-04-06T12:37:04;99276.09;;;6.52;40.26
51759;BME280;66684;47.568;18.734;2023-04-06T12:39:30;99283.28;;;6.59;41.04
51759;BME280;66684;47.568;18.734;2023-04-06T12:41:57;99281.31;;;6.37;40.92
51759;BME280;66684;47.568;18.734;2023-04-06T12:44:23;99270.25;;;6.55;41.09
51759;BME280;66684;47.568;18.734;2023-04-06T12:46:49;99284.16;;;6.60;41.06
51759;BME280;66684;47.568;18.734;2023-04-06T12:49:15;99272.19;;;6.76;40.87
51759;BME280;66684;47.568;18.734;2023-04-06T12:51:44;99257.09;;;6.83;40.20
51759;BME280;66684;47.568;18.734;2023-04-06T12:54:10;99271.63;;;6.82;39.34
51759;BME280;66684;47.568;18.734;2023-04-06T12:56:37;99280.44;;;6.87;40.36